CheckWX is a tool to help pilots better visualize weather data.  It is not intended as a substitute for an official pre-flight weather briefing.

17:41:21 UTC

MKJP TAF
Norman Manley International Airport
Kingston, Jamaica
TAF MKJP 181715Z 1818/1918 13025G35KT 9999 FEW024 BECMG 1902/1904 15015KT FEW022 BECMG 1913/1915 13026G36KT

Jun-18@
18:00 UTC

Jun-18 @ 18:00 UTC

Jun-19@
02:00 UTC

Jun-19 @ 02:00 UTC

TAF MKJP 181715Z 1818/1918 13025G35KT 9999 FEW024
Wind
  • 130° at 25 KTS
  • {Gusting to 35 KTS
Cloud Levels
  • Few at 2,400' AGL

Jun-19@
02:00 UTC

Jun-19 @ 02:00 UTC

Jun-19@
13:00 UTC

Jun-19 @ 13:00 UTC

BECMG 1902/1904 15015KT FEW022

Becoming

Becoming Conditions expected by Wed, Jun 19, 2019 @ 04:00 UTC

Wind
  • 150° at 15 KTS
Cloud Levels
  • Few at 2,200' AGL

Jun-19@
13:00 UTC

Jun-19 @ 13:00 UTC

Jun-19@
18:00 UTC

Jun-19 @ 18:00 UTC

BECMG 1913/1915 13026G36KT

Becoming

Becoming Conditions expected by Wed, Jun 19, 2019 @ 15:00 UTC

Wind
  • 130° at 26 KTS
  • {Gusting to 36 KTS
Cloud Levels
  • Few at 2,200' AGL